createdAt,value
2022-07-29T00:04:12.104Z,21.40
2022-07-29T00:09:02.639Z,17.90
2022-07-29T00:13:53.765Z,17.80
2022-07-29T00:18:44.559Z,17.70
2022-07-29T00:23:38.225Z,17.70
2022-07-29T00:28:26.690Z,17.50
2022-07-29T00:33:17.967Z,17.50
2022-07-29T00:38:08.780Z,17.50
2022-07-29T00:43:00.212Z,17.50
2022-07-29T00:47:51.183Z,17.50
2022-07-29T00:52:42.426Z,17.40
2022-07-29T00:57:33.541Z,17.30
2022-07-29T01:02:27.543Z,17.30
2022-07-29T01:07:15.697Z,17.10
2022-07-29T01:12:08.783Z,17.10
2022-07-29T01:16:57.514Z,17.10
2022-07-29T01:21:51.633Z,17.10
2022-07-29T01:26:40.222Z,17.00
2022-07-29T01:31:38.510Z,17.00
2022-07-29T01:36:21.989Z,17.00
2022-07-29T01:41:13.156Z,17.00
2022-07-29T01:46:03.971Z,16.90
2022-07-29T01:50:55.298Z,16.90
2022-07-29T01:55:46.375Z,16.90
2022-07-29T02:00:37.554Z,16.90
2022-07-29T02:05:28.748Z,16.80
2022-07-29T02:10:26.408Z,16.80
2022-07-29T02:15:14.953Z,16.60
2022-07-29T02:20:03.692Z,16.70
2022-07-29T02:24:54.383Z,16.70
2022-07-29T02:29:45.816Z,16.70
2022-07-29T02:34:36.922Z,16.60
2022-07-29T02:39:27.846Z,16.60
2022-07-29T02:44:20.600Z,16.60
2022-07-29T02:49:10.233Z,16.70
2022-07-29T02:54:01.105Z,16.70
2022-07-29T02:58:52.156Z,16.60
2022-07-29T03:03:48.014Z,16.60
2022-07-29T03:08:36.148Z,16.60
2022-07-29T03:13:27.408Z,16.60
2022-07-29T03:18:18.395Z,16.50
2022-07-29T03:23:09.183Z,16.50
2022-07-29T03:28:00.438Z,16.50
2022-07-29T03:32:56.710Z,16.50
2022-07-29T03:37:44.654Z,16.40
2022-07-29T03:42:35.670Z,16.40
2022-07-29T03:47:58.541Z,16.40
2022-07-29T03:52:17.824Z,16.40
2022-07-29T03:57:11.004Z,16.40
2022-07-29T04:02:02.315Z,16.30
2022-07-29T04:06:53.118Z,16.40
2022-07-29T04:12:04.776Z,16.40
2022-07-29T04:16:36.835Z,16.50
2022-07-29T04:21:28.303Z,16.50
2022-07-29T04:26:19.249Z,16.70
2022-07-29T04:31:10.606Z,16.80
2022-07-29T04:36:01.437Z,16.90
2022-07-29T04:40:55.818Z,17.00
2022-07-29T04:45:45.337Z,17.00
2022-07-29T04:50:36.765Z,17.10
2022-07-29T04:55:27.734Z,17.20
2022-07-29T05:00:18.693Z,17.30
2022-07-29T05:05:09.510Z,17.50
2022-07-29T05:10:00.885Z,17.50
2022-07-29T05:14:51.977Z,19.00
2022-07-29T05:19:43.063Z,17.30
2022-07-29T05:24:33.963Z,17.30
2022-07-29T05:29:46.109Z,17.40
2022-07-29T05:34:17.354Z,17.40
2022-07-29T05:39:07.201Z,17.40
2022-07-29T05:43:58.270Z,17.40
2022-07-29T05:48:49.562Z,17.50
2022-07-29T05:53:40.509Z,17.50
2022-07-29T05:58:31.497Z,17.40
2022-07-29T06:03:22.564Z,17.40
2022-07-29T06:08:13.622Z,17.40
2022-07-29T06:13:04.751Z,17.50
2022-07-29T06:18:02.666Z,17.70
2022-07-29T06:22:46.921Z,17.60
2022-07-29T06:27:39.613Z,17.60
2022-07-29T06:32:29.072Z,17.60
2022-07-29T06:37:20.219Z,17.60
2022-07-29T06:42:11.045Z,17.80
2022-07-29T06:47:01.900Z,17.90
2022-07-29T06:51:52.963Z,18.10
2022-07-29T06:56:44.405Z,18.40
2022-07-29T07:01:35.896Z,18.60
2022-07-29T07:06:26.470Z,19.10
2022-07-29T07:11:17.439Z,19.40
2022-07-29T07:16:08.188Z,19.50
2022-07-29T07:20:59.610Z,19.50
2022-07-29T07:25:50.720Z,19.30
2022-07-29T07:30:41.725Z,19.30
2022-07-29T07:35:32.750Z,19.70
2022-07-29T07:40:23.815Z,19.80
2022-07-29T07:45:17.139Z,19.90
2022-07-29T07:50:05.938Z,20.80
2022-07-29T07:54:57.048Z,20.40
2022-07-29T07:59:47.839Z,20.60
2022-07-29T08:04:39.137Z,20.70
2022-07-29T08:09:31.224Z,20.90
2022-07-29T08:14:21.087Z,21.20
2022-07-29T08:19:12.433Z,21.60
2022-07-29T08:24:07.687Z,21.70
2022-07-29T08:28:54.755Z,21.80
2022-07-29T08:33:45.671Z,22.20
2022-07-29T08:38:36.873Z,22.20
2022-07-29T08:43:27.938Z,22.20
2022-07-29T08:48:18.950Z,22.40
2022-07-29T08:53:09.750Z,22.30
2022-07-29T08:58:01.102Z,22.30
2022-07-29T09:02:52.275Z,22.70
2022-07-29T09:07:43.450Z,22.70
2022-07-29T09:12:38.718Z,22.80
2022-07-29T09:17:25.740Z,23.10
2022-07-29T09:22:16.592Z,23.00
2022-07-29T09:27:07.569Z,23.00
2022-07-29T09:31:58.787Z,23.10
2022-07-29T09:36:49.708Z,23.10
2022-07-29T09:41:41.148Z,23.00
2022-07-29T09:46:31.804Z,23.10
2022-07-29T09:51:38.789Z,22.50
2022-07-29T09:56:14.058Z,22.30
2022-07-29T10:01:05.204Z,22.50
2022-07-29T10:05:56.149Z,22.30
2022-07-29T10:10:47.253Z,22.40
2022-07-29T10:15:38.235Z,22.50
2022-07-29T10:20:29.301Z,22.30
2022-07-29T10:25:20.391Z,22.60
2022-07-29T10:30:11.076Z,22.20
2022-07-29T10:35:02.555Z,22.10
2022-07-29T10:39:53.597Z,21.90
2022-07-29T10:44:44.754Z,21.70
2022-07-29T10:49:35.849Z,21.20
2022-07-29T10:54:27.095Z,20.80
2022-07-29T10:59:22.660Z,20.70
2022-07-29T11:04:09.045Z,20.20
2022-07-29T11:09:00.077Z,19.90
2022-07-29T11:13:51.026Z,19.80
2022-07-29T11:18:44.971Z,19.60
2022-07-29T11:23:34.912Z,19.20
2022-07-29T11:28:25.842Z,18.90
2022-07-29T11:33:15.393Z,19.00
2022-07-29T11:38:06.321Z,19.10
2022-07-29T11:42:58.653Z,18.80
2022-07-29T11:47:48.643Z,18.60
2022-07-29T11:52:50.558Z,18.60
2022-07-29T11:57:37.839Z,18.70
2022-07-29T12:02:41.310Z,18.60
2022-07-29T12:07:16.106Z,18.70
2022-07-29T12:12:06.122Z,18.60
2022-07-29T12:16:55.771Z,18.50
2022-07-29T12:22:02.636Z,18.50
2022-07-29T12:26:37.333Z,18.70
2022-07-29T12:31:45.794Z,18.70
2022-07-29T12:36:19.141Z,18.70
2022-07-29T12:41:09.916Z,22.00
2022-07-29T12:46:01.454Z,19.00
2022-07-29T12:50:52.344Z,18.80
2022-07-29T12:55:43.430Z,18.80
2022-07-29T13:00:34.626Z,18.50
2022-07-29T13:05:25.474Z,18.40
2022-07-29T13:10:24.505Z,18.40
2022-07-29T13:15:07.577Z,18.50
2022-07-29T13:19:58.770Z,18.90
2022-07-29T13:24:49.778Z,19.20
2022-07-29T13:29:41.755Z,19.60
2022-07-29T13:34:31.872Z,19.90
2022-07-29T13:39:23.074Z,20.00
2022-07-29T13:44:13.987Z,20.20
2022-07-29T13:49:04.955Z,20.30
2022-07-29T13:53:56.087Z,20.20
2022-07-29T13:58:47.185Z,20.20
2022-07-29T14:03:38.344Z,20.30
2022-07-29T14:08:29.062Z,20.70
2022-07-29T14:13:26.615Z,21.10
2022-07-29T14:18:11.095Z,21.40
2022-07-29T14:23:03.092Z,21.90
2022-07-29T14:27:53.522Z,23.00
2022-07-29T14:32:44.548Z,23.00
2022-07-29T14:37:41.020Z,23.30
2022-07-29T14:42:26.703Z,23.30
2022-07-29T14:47:17.858Z,23.30
2022-07-29T14:52:08.835Z,23.40
2022-07-29T14:56:59.940Z,23.40
2022-07-29T15:01:51.252Z,23.70
2022-07-29T15:06:42.103Z,23.80
2022-07-29T15:11:39.192Z,24.30
2022-07-29T15:16:24.401Z,24.40
2022-07-29T15:21:15.347Z,24.30
2022-07-29T15:26:06.344Z,24.40
2022-07-29T15:30:57.504Z,24.60
2022-07-29T15:35:48.147Z,24.90
2022-07-29T15:40:39.485Z,25.50
2022-07-29T15:45:39.731Z,25.40
2022-07-29T15:50:21.600Z,25.40
2022-07-29T15:55:12.656Z,25.50
2022-07-29T16:00:03.853Z,25.60
2022-07-29T16:04:54.937Z,25.50
2022-07-29T16:09:53.891Z,25.60
2022-07-29T16:14:38.793Z,25.80
2022-07-29T16:19:28.527Z,26.10
2022-07-29T16:24:19.229Z,26.30
2022-07-29T16:29:10.179Z,26.90
2022-07-29T16:34:01.297Z,27.70
2022-07-29T16:38:52.257Z,28.80
2022-07-29T16:43:43.428Z,29.10
2022-07-29T16:48:37.821Z,29.40
2022-07-29T16:53:30.511Z,30.00
2022-07-29T16:58:16.479Z,30.40
2022-07-29T17:03:07.646Z,30.60
2022-07-29T17:07:59.608Z,30.30
2022-07-29T17:12:49.670Z,30.30
2022-07-29T17:17:57.149Z,30.20
2022-07-29T17:22:34.125Z,30.60
2022-07-29T17:27:25.222Z,29.60
2022-07-29T17:32:16.351Z,29.60
2022-07-29T17:37:07.313Z,28.90
2022-07-29T17:41:58.429Z,29.00
2022-07-29T17:46:49.630Z,29.30
2022-07-29T17:51:40.551Z,28.50
2022-07-29T17:56:31.560Z,28.50
2022-07-29T18:01:22.901Z,27.90
2022-07-29T18:06:13.635Z,26.70
2022-07-29T18:11:04.673Z,25.30
2022-07-29T18:16:01.181Z,26.30
2022-07-29T18:20:46.806Z,26.00
2022-07-29T18:25:37.601Z,25.40
2022-07-29T18:30:28.937Z,24.70
2022-07-29T18:35:19.755Z,24.20
2022-07-29T18:40:11.131Z,23.90
2022-07-29T18:45:04.266Z,23.70
2022-07-29T18:49:53.246Z,23.50
2022-07-29T18:54:47.741Z,23.40
2022-07-29T18:59:35.331Z,23.30
2022-07-29T19:04:26.506Z,25.90
2022-07-29T19:09:17.454Z,22.70
2022-07-29T19:14:08.590Z,22.40
2022-07-29T19:18:59.683Z,22.10
2022-07-29T19:24:15.078Z,21.80
2022-07-29T19:28:49.426Z,21.50
2022-07-29T19:33:32.846Z,21.60
2022-07-29T19:38:23.931Z,21.40
2022-07-29T19:43:53.475Z,21.20
2022-07-29T19:48:05.657Z,21.00
2022-07-29T19:52:57.042Z,20.80
2022-07-29T19:57:48.467Z,20.40
2022-07-29T20:02:39.237Z,20.40
2022-07-29T20:07:30.247Z,20.20
2022-07-29T20:12:21.319Z,20.00
2022-07-29T20:17:12.290Z,19.80
2022-07-29T20:22:03.391Z,19.60
2022-07-29T20:26:54.594Z,19.50
2022-07-29T20:31:56.894Z,19.40
2022-07-29T20:36:36.333Z,19.30
2022-07-29T20:41:27.799Z,19.20
2022-07-29T20:46:19.093Z,19.10
2022-07-29T20:51:10.131Z,18.90
2022-07-29T20:56:00.959Z,18.80
2022-07-29T21:00:52.202Z,18.70
2022-07-29T21:05:44.413Z,18.70
2022-07-29T21:10:34.240Z,18.60
2022-07-29T21:15:25.444Z,18.70
2022-07-29T21:20:16.208Z,18.60
2022-07-29T21:25:07.289Z,18.60
2022-07-29T21:30:00.689Z,18.50
2022-07-29T21:34:49.565Z,18.50
2022-07-29T21:39:40.453Z,18.40
2022-07-29T21:44:31.518Z,18.40
2022-07-29T21:49:22.968Z,18.30
2022-07-29T21:54:14.413Z,18.20
2022-07-29T21:59:13.322Z,18.10
2022-07-29T22:03:56.013Z,18.00
2022-07-29T22:08:46.842Z,17.80
2022-07-29T22:13:37.965Z,17.80
2022-07-29T22:18:29.074Z,17.70
2022-07-29T22:23:20.073Z,17.60
2022-07-29T22:28:11.043Z,17.40
2022-07-29T22:33:02.379Z,17.50
2022-07-29T22:37:53.305Z,17.30
2022-07-29T22:42:44.328Z,17.30
2022-07-29T22:47:49.017Z,17.30
2022-07-29T22:52:26.180Z,17.20
2022-07-29T22:57:17.541Z,17.20
2022-07-29T23:02:08.290Z,17.20
2022-07-29T23:07:00.519Z,17.10
2022-07-29T23:11:50.788Z,17.00
2022-07-29T23:16:41.974Z,16.90
2022-07-29T23:21:32.995Z,16.90
2022-07-29T23:26:23.890Z,16.80
2022-07-29T23:31:15.263Z,16.70
2022-07-29T23:36:05.744Z,16.60
2022-07-29T23:40:57.110Z,16.50
2022-07-29T23:45:49.463Z,16.50
2022-07-29T23:50:39.436Z,16.40
2022-07-29T23:55:39.638Z,16.30
